Date,TemperatureHighF,TemperatureAvgF,TemperatureLowF,DewpointHighF,DewpointAvgF,DewpointLowF,HumidityHigh,HumidityAvg,HumidityLow,PressureMaxIn,PressureMinIn,WindSpeedMaxMPH,WindSpeedAvgMPH,GustSpeedMaxMPH,PrecipitationSumIn
2013-2-1,34,27,20,9,1,-6,47,32,26,30.10,29.55,8,6,28,0.00
2013-2-2,28,23,17,11,0,-8,52,37,28,30.26,30.11,8,2,18,0.00
2013-2-3,33,27,20,10,8,4,54,44,33,30.13,29.81,4,1,11,0.00
2013-2-4,29,26,23,10,8,3,53,48,37,29.81,29.76,5,2,14,0.00
2013-2-5,31,23,14,3,-5,-11,38,29,21,30.10,29.95,3,1,10,0.00
2013-2-6,39,29,21,15,6,-13,51,39,21,30.36,30.01,5,2,16,0.00
2013-2-7,30,23,16,-5,-9,-12,30,24,18,30.63,30.36,8,2,23,0.00
2013-2-8,23,20,16,8,3,-8,62,48,25,30.63,30.04,6,3,19,0.00
2013-2-9,27,22,17,10,5,0,69,50,38,30.24,29.89,7,4,23,0.00
2013-2-10,42,24,8,10,0,-11,48,36,19,30.44,30.24,4,0,11,0.20
2013-2-11,32,26,17,20,10,0,60,51,44,30.42,29.68,1,0,6,0.00
2013-2-12,50,39,30,26,23,18,67,53,37,29.88,29.64,6,2,19,0.33
2013-2-13,49,39,34,22,19,17,56,44,30,29.92,29.84,5,2,15,0.02
2013-2-14,50,39,33,20,18,16,54,44,27,30.09,29.81,2,0,10,0.00
2013-2-15,51,37,29,24,18,14,55,47,34,30.08,29.97,5,1,15,0.00
2013-2-19,47,32,19,25,6,-8,61,35,19,30.20,29.69,3,1,9,0.00
2013-2-20,42,37,31,28,17,10,68,46,32,29.76,29.56,7,3,21,0.10
2013-2-21,39,31,23,12,7,-1,49,37,27,30.28,29.76,7,3,22,0.01
2013-2-22,48,35,24,17,14,8,55,42,28,30.49,30.31,4,1,13,0.06
2013-2-23,42,38,34,26,21,16,62,52,45,30.44,30.10,1,0,4,0.03
2013-2-24,40,37,35,27,26,24,65,62,58,30.10,29.89,3,0,10,0.03
2013-2-25,53,41,34,31,26,20,61,55,39,30.33,30.01,1,0,6,0.46
2013-2-26,53,42,35,27,25,23,61,52,35,30.46,30.34,1,0,5,0.20
2013-2-27,39,37,35,28,25,22,68,63,55,30.33,29.83,5,2,13,0.01
2013-2-28,53,42,35,34,29,24,66,60,48,29.82,29.65,3,1,8,0.50